Time;durP1;ratioP1;P1;durP2;ratioP2;P2;SDS_P1;SDS_P2;PMS_P1;PMS_P2;Temp;Humidity;BMP_temperature;BMP_pressure;BME280_temperature;BME280_humidity;BME280_pressure;Samples;Min_cycle;Max_cycle;Signal;HPM_P1;HPM_P2
2022/08/14 00:00:47;;;;;;;6.32;4.90;;;;;;;22.37;48.67;100875.75;3588672;40;20064;-63
2022/08/14 00:03:25;;;;;;;6.93;5.22;;;;;;;22.30;48.92;100875.56;3589561;39;20382;-63
2022/08/14 00:05:52;;;;;;;7.07;4.93;;;;;;;22.28;48.42;100876.75;3588866;40;20052;-63
2022/08/14 00:08:18;;;;;;;6.28;4.82;;;;;;;22.22;49.42;100875.53;3592517;40;20051;-63
2022/08/14 00:10:44;;;;;;;8.70;5.32;;;;;;;22.18;48.67;100866.81;3589317;39;20064;-63
2022/08/14 00:13:12;;;;;;;8.48;5.18;;;;;;;22.18;49.50;100865.97;3591489;39;20079;-63
2022/08/14 00:15:42;;;;;;;11.60;5.32;;;;;;;22.14;48.96;100859.09;3585129;40;20102;-63
2022/08/14 00:18:11;;;;;;;6.18;5.45;;;;;;;22.04;49.48;100851.00;3587893;40;20640;-63
2022/08/14 00:20:41;;;;;;;5.72;5.07;;;;;;;22.07;49.23;100855.28;3587638;39;20052;-63
2022/08/14 00:23:10;;;;;;;6.85;5.03;;;;;;;22.02;49.80;100855.81;3587648;40;20060;-63
2022/08/14 00:25:36;;;;;;;6.18;5.57;;;;;;;21.90;49.83;100840.75;3589638;40;20052;-62
2022/08/14 00:28:06;;;;;;;6.13;5.20;;;;;;;21.88;50.12;100843.63;3589200;40;20255;-63
2022/08/14 00:30:32;;;;;;;5.57;5.00;;;;;;;21.86;50.36;100844.84;3587553;39;20275;-63
2022/08/14 00:32:58;;;;;;;5.50;5.00;;;;;;;21.81;50.25;100839.84;3591283;40;20059;-62
2022/08/14 00:35:23;;;;;;;6.38;5.15;;;;;;;21.80;50.17;100840.88;3589216;39;20063;-63
2022/08/14 00:37:49;;;;;;;5.80;5.20;;;;;;;21.78;50.68;100832.84;3585749;40;20409;-63
2022/08/14 00:40:18;;;;;;;6.15;4.93;;;;;;;21.77;51.01;100825.66;3589167;39;20383;-63
2022/08/14 00:42:45;;;;;;;8.63;4.85;;;;;;;21.75;51.22;100835.91;3584080;39;20197;-63
2022/08/14 00:45:14;;;;;;;5.68;5.18;;;;;;;21.76;49.99;100831.31;3584812;40;20068;-63
2022/08/14 00:47:43;;;;;;;6.82;5.28;;;;;;;21.74;50.42;100827.88;3586537;40;20129;-63
2022/08/14 00:50:19;;;;;;;8.50;4.90;;;;;;;21.71;51.06;100825.47;3592148;39;20048;-64
2022/08/14 00:52:50;;;;;;;5.60;5.10;;;;;;;21.68;51.23;100817.59;3590987;40;20058;-63
2022/08/14 00:55:15;;;;;;;5.47;4.82;;;;;;;21.66;51.00;100815.03;3587870;40;20119;-64
2022/08/14 00:57:41;;;;;;;6.03;4.90;;;;;;;21.65;50.56;100810.56;3587926;40;20072;-61
2022/08/14 01:00:14;;;;;;;7.35;4.90;;;;;;;21.62;50.24;100807.31;3587617;39;20431;-61
2022/08/14 01:02:43;;;;;;;5.65;5.07;;;;;;;21.55;51.06;100810.72;3584003;40;20066;-61
2022/08/14 01:05:22;;;;;;;6.50;4.45;;;;;;;21.40;51.18;100779.56;3588587;40;20363;-61
2022/08/14 01:07:59;;;;;;;5.88;4.68;;;;;;;21.44;51.04;100796.50;3587304;40;20055;-61
2022/08/14 01:10:49;;;;;;;10.27;5.40;;;;;;;21.44;51.16;100791.91;3583788;40;20409;-62
2022/08/14 01:13:24;;;;;;;5.78;5.30;;;;;;;21.42;50.82;100793.09;3584067;40;20054;-62
2022/08/14 01:15:54;;;;;;;8.63;5.35;;;;;;;21.36;51.85;100791.00;3586204;40;20060;-62
2022/08/14 01:21:14;;;;;;;6.00;4.90;;;;;;;21.32;51.66;100793.19;3586817;40;20093;-62
2022/08/14 01:23:52;;;;;;;5.57;5.00;;;;;;;21.27;52.21;100795.56;3590584;39;20318;-62
2022/08/14 01:26:22;;;;;;;5.88;5.22;;;;;;;21.24;52.04;100784.94;3590979;39;20305;-62
2022/08/14 01:28:54;;;;;;;6.85;5.40;;;;;;;21.20;52.69;100783.56;3584835;40;20114;-62
2022/08/14 01:31:33;;;;;;;5.45;4.95;;;;;;;21.14;52.71;100784.22;3587477;39;20048;-62
2022/08/14 01:34:03;;;;;;;9.07;5.75;;;;;;;21.08;52.99;100783.00;3589793;40;20044;-62
2022/08/14 01:36:35;;;;;;;6.28;5.68;;;;;;;21.07;53.40;100786.78;3589612;40;20088;-62
2022/08/14 01:39:06;;;;;;;6.22;5.13;;;;;;;21.01;53.34;100785.53;3589451;40;20371;-62
2022/08/14 01:41:35;;;;;;;5.72;5.13;;;;;;;20.94;53.94;100781.75;3585199;39;20046;-62
2022/08/14 01:44:06;;;;;;;8.60;5.10;;;;;;;20.93;53.37;100788.25;3585454;40;20051;-62
2022/08/14 01:46:36;;;;;;;8.73;5.35;;;;;;;20.75;53.87;100765.63;3586223;39;20052;-62
2022/08/14 01:49:07;;;;;;;8.18;5.40;;;;;;;20.83;53.86;100793.81;3583969;40;20375;-62
2022/08/14 01:51:35;;;;;;;12.23;5.70;;;;;;;20.84;53.80;100794.69;3584323;40;20059;-62
2022/08/14 01:54:08;;;;;;;6.90;5.38;;;;;;;20.80;54.19;100785.09;3584628;40;20108;-62
2022/08/14 01:56:37;;;;;;;13.57;6.10;;;;;;;20.78;55.10;100795.34;3586324;40;20180;-62
2022/08/14 01:59:22;;;;;;;9.30;6.10;;;;;;;20.71;54.57;100783.31;3584017;39;20282;-62
2022/08/14 02:01:52;;;;;;;10.52;5.50;;;;;;;20.65;55.05;100776.66;3583581;40;20059;-62
2022/08/14 02:04:24;;;;;;;11.57;5.68;;;;;;;20.60;54.53;100773.53;3583657;40;20052;-62
2022/08/14 02:06:51;;;;;;;12.32;6.15;;;;;;;20.57;55.20;100771.97;3583528;40;20080;-62
2022/08/14 02:09:20;;;;;;;10.15;5.97;;;;;;;20.57;54.79;100777.44;3583759;40;20048;-62
2022/08/14 02:11:47;;;;;;;9.95;5.75;;;;;;;20.54;55.51;100772.31;3582274;40;20634;-62
2022/08/14 02:14:13;;;;;;;7.22;5.55;;;;;;;20.55;55.57;100768.56;3585950;40;20051;-62
2022/08/14 02:16:43;;;;;;;9.65;5.93;;;;;;;20.56;55.18;100764.81;3583822;40;20052;-62
2022/08/14 02:19:14;;;;;;;13.23;5.85;;;;;;;20.40;54.51;100745.56;3585745;39;20379;-62
2022/08/14 02:21:43;;;;;;;7.50;5.40;;;;;;;20.56;55.02;100767.53;3584063;40;20114;-62
2022/08/14 02:24:11;;;;;;;9.10;5.15;;;;;;;20.54;55.10;100761.38;3584195;39;20382;-62
2022/08/14 02:26:40;;;;;;;9.70;5.15;;;;;;;20.53;55.13;100762.41;3583762;40;20054;-62
2022/08/14 02:29:12;;;;;;;5.78;5.18;;;;;;;20.45;54.49;100756.84;3584220;40;20096;-62
2022/08/14 02:31:42;;;;;;;8.23;5.47;;;;;;;20.43;55.31;100769.81;3583810;40;20383;-63
2022/08/14 02:34:17;;;;;;;9.93;5.30;;;;;;;20.45;55.74;100769.66;3587327;40;20426;-63
2022/08/14 02:36:47;;;;;;;9.35;5.70;;;;;;;20.43;57.03;100752.59;3585481;39;20044;-62
2022/08/14 02:39:14;;;;;;;8.57;5.63;;;;;;;20.42;57.16;100757.16;3582601;40;20052;-63
2022/08/14 02:41:41;;;;;;;7.38;5.53;;;;;;;20.39;57.74;100761.09;3583379;40;20066;-62
2022/08/14 02:44:10;;;;;;;9.88;5.70;;;;;;;20.38;55.91;100761.25;3584038;40;20052;-62
2022/08/14 02:46:43;;;;;;;6.65;5.53;;;;;;;20.36;55.44;100757.81;3586034;40;20050;-62
2022/08/14 02:49:10;;;;;;;8.45;5.55;;;;;;;20.32;56.46;100748.22;3588543;40;20068;-62
2022/08/14 02:51:37;;;;;;;6.45;5.10;;;;;;;20.28;55.58;100749.56;3583279;40;20060;-62
2022/08/14 02:54:06;;;;;;;8.10;5.40;;;;;;;20.23;56.11;100741.00;3584745;40;20141;-62
2022/08/14 02:56:37;;;;;;;8.65;5.50;;;;;;;20.21;56.18;100749.38;3586329;40;20123;-62
2022/08/14 02:59:05;;;;;;;8.63;5.60;;;;;;;20.23;56.14;100751.91;3584230;39;20221;-63
2022/08/14 03:01:34;;;;;;;6.95;5.22;;;;;;;20.20;55.85;100749.50;3583538;40;20409;-63
2022/08/14 03:04:00;;;;;;;9.70;5.70;;;;;;;20.15;55.54;100745.38;3584204;40;20064;-62
2022/08/14 03:06:27;;;;;;;8.82;5.30;;;;;;;20.16;56.09;100747.09;3583707;40;20092;-62
2022/08/14 03:08:54;;;;;;;8.13;5.18;;;;;;;20.15;55.68;100739.06;3583670;40;20052;-62
2022/08/14 03:11:20;;;;;;;6.30;5.30;;;;;;;20.07;56.30;100728.94;3583444;40;20093;-62
2022/08/14 03:13:52;;;;;;;6.43;5.25;;;;;;;20.16;56.68;100735.31;3583727;40;20052;-62
2022/08/14 03:16:23;;;;;;;5.60;5.10;;;;;;;20.17;55.58;100737.03;3583290;40;20036;-64
2022/08/14 03:18:53;;;;;;;5.97;5.13;;;;;;;20.14;55.15;100738.22;3585772;40;20076;-62
2022/08/14 03:21:23;;;;;;;7.32;5.43;;;;;;;20.10;55.31;100742.25;3585247;40;20303;-62
2022/08/14 03:26:35;;;;;;;8.43;4.93;;;;;;;20.02;56.86;100739.50;3587266;40;20307;-62
2022/08/14 03:29:03;;;;;;;11.02;5.57;;;;;;;19.72;56.48;100694.38;3584891;39;20068;-62
2022/08/14 03:31:29;;;;;;;8.07;5.43;;;;;;;19.98;56.33;100734.50;3583797;40;20383;-62
2022/08/14 03:33:55;;;;;;;10.90;6.72;;;;;;;19.94;57.10;100729.34;3585743;40;20337;-62
2022/08/14 03:36:21;;;;;;;8.55;5.28;;;;;;;19.88;56.99;100713.59;3584194;40;20044;-64
2022/08/14 03:38:52;;;;;;;5.70;5.05;;;;;;;19.74;57.24;100691.53;3583224;40;20117;-62
2022/08/14 03:41:23;;;;;;;8.43;5.88;;;;;;;19.85;57.74;100715.81;3583673;40;20050;-64
2022/08/14 03:44:00;;;;;;;8.27;5.93;;;;;;;19.83;57.85;100713.25;3583592;40;20130;-63
2022/08/14 03:46:29;;;;;;;10.23;5.47;;;;;;;19.83;57.71;100718.69;3583976;40;20055;-62
2022/08/14 03:48:55;;;;;;;8.60;5.50;;;;;;;19.85;57.28;100723.97;3586593;40;20146;-62
2022/08/14 03:51:27;;;;;;;10.98;5.63;;;;;;;19.83;57.64;100715.13;3583093;40;20059;-62
2022/08/14 03:53:56;;;;;;;6.22;5.47;;;;;;;19.86;56.99;100725.72;3583970;40;20088;-62
2022/08/14 03:56:25;;;;;;;8.52;5.70;;;;;;;19.84;56.20;100722.28;3586141;40;20056;-62
2022/08/14 03:58:54;;;;;;;8.75;5.72;;;;;;;19.81;57.27;100728.06;3584951;40;20141;-62
2022/08/14 04:01:23;;;;;;;6.38;5.78;;;;;;;19.79;56.73;100725.50;3584925;40;20058;-62
2022/08/14 04:03:52;;;;;;;6.20;5.50;;;;;;;19.76;57.30;100728.53;3584850;40;20048;-62
2022/08/14 04:06:21;;;;;;;6.75;5.32;;;;;;;19.76;57.41;100727.66;3585005;40;20118;-62
2022/08/14 04:08:49;;;;;;;7.65;5.78;;;;;;;19.76;57.83;100724.94;3584994;40;20055;-62
2022/08/14 04:11:17;;;;;;;10.57;6.35;;;;;;;19.77;57.67;100729.38;3584811;40;20126;-62
2022/08/14 04:13:45;;;;;;;6.47;5.15;;;;;;;19.75;57.40;100720.50;3586700;40;20378;-62
2022/08/14 04:16:22;;;;;;;7.07;5.40;;;;;;;19.74;56.79;100721.53;3585835;40;20464;-63
2022/08/14 04:18:54;;;;;;;10.10;5.88;;;;;;;19.67;57.65;100713.97;3586125;40;20122;-62
2022/08/14 04:21:23;;;;;;;7.50;6.03;;;;;;;19.66;57.74;100711.38;3584990;40;20050;-62
2022/08/14 04:23:51;;;;;;;8.10;5.95;;;;;;;19.61;57.54;100714.56;3584500;40;20083;-62
2022/08/14 04:26:20;;;;;;;9.65;6.13;;;;;;;19.56;57.56;100711.44;3584680;40;20056;-62
2022/08/14 04:28:49;;;;;;;8.55;5.55;;;;;;;19.54;57.83;100712.63;3586781;40;20043;-61
2022/08/14 04:31:20;;;;;;;11.27;6.20;;;;;;;19.52;58.34;100704.56;3584920;40;20382;-62
2022/08/14 04:33:47;;;;;;;8.73;5.88;;;;;;;19.48;57.57;100703.19;3587555;40;20078;-62
2022/08/14 04:36:13;;;;;;;9.65;5.88;;;;;;;19.47;57.57;100704.19;3584779;40;20062;-62
2022/08/14 04:44:07;;;;;;;6.32;5.43;;;;;;;19.55;57.48;100693.34;3585542;40;20177;-62
2022/08/14 04:46:34;;;;;;;11.02;5.82;;;;;;;19.58;57.84;100687.59;3586291;40;20060;-62
2022/08/14 04:49:03;;;;;;;8.77;7.88;;;;;;;19.59;57.07;100689.31;3584763;40;20056;-62
2022/08/14 04:51:31;;;;;;;14.70;11.35;;;;;;;19.61;58.05;100684.56;3584554;40;20297;-62
2022/08/14 04:53:59;;;;;;;18.05;12.45;;;;;;;19.63;57.73;100679.81;3585113;40;20586;-62
2022/08/14 04:56:26;;;;;;;19.98;13.30;;;;;;;19.65;58.02;100683.25;3584333;40;20049;-62
2022/08/14 04:58:59;;;;;;;22.80;17.40;;;;;;;19.69;58.23;100678.34;3585534;40;20310;-62
2022/08/14 05:01:26;;;;;;;18.58;13.05;;;;;;;19.73;58.15;100687.06;3584418;40;20052;-62
2022/08/14 05:03:53;;;;;;;10.50;8.30;;;;;;;19.75;57.84;100672.25;3585772;40;20375;-62
2022/08/14 05:06:20;;;;;;;7.38;6.22;;;;;;;19.77;58.31;100675.69;3583991;40;20383;-62
2022/08/14 05:08:46;;;;;;;11.88;9.10;;;;;;;19.82;58.40;100675.19;3583985;40;20078;-62
2022/08/14 05:11:12;;;;;;;24.25;18.00;;;;;;;19.84;57.47;100681.38;3584237;40;20377;-62
2022/08/14 05:13:38;;;;;;;14.82;11.30;;;;;;;19.88;58.00;100682.75;3584122;40;20103;-62
2022/08/14 05:16:06;;;;;;;9.38;8.38;;;;;;;19.94;57.67;100682.97;3584409;39;20075;-62
2022/08/14 05:18:37;;;;;;;7.97;6.25;;;;;;;19.97;58.07;100679.06;3586002;40;20044;-62
2022/08/14 05:21:06;;;;;;;8.05;6.20;;;;;;;19.98;57.57;100667.16;3584561;40;20068;-62
2022/08/14 05:23:39;;;;;;;6.35;5.68;;;;;;;20.05;58.00;100676.41;3584426;40;20048;-62
2022/08/14 05:26:11;;;;;;;6.80;5.57;;;;;;;20.12;57.35;100673.91;3584550;40;20126;-62
2022/08/14 05:28:44;;;;;;;7.55;6.00;;;;;;;20.18;57.84;100674.09;3587784;40;20164;-62
2022/08/14 05:31:16;;;;;;;9.77;6.40;;;;;;;20.26;58.04;100669.69;3584360;40;20129;-62
2022/08/14 05:33:44;;;;;;;7.20;6.50;;;;;;;20.32;57.08;100671.78;3585574;40;20315;-62
2022/08/14 05:36:12;;;;;;;9.77;6.30;;;;;;;20.39;56.95;100671.00;3584026;40;20044;-62
2022/08/14 05:38:43;;;;;;;9.00;6.50;;;;;;;20.49;56.67;100676.34;3586012;40;20056;-62
2022/08/14 05:41:16;;;;;;;10.23;6.50;;;;;;;20.49;57.02;100675.44;3585738;40;20067;-62
2022/08/14 05:43:44;;;;;;;;;;;;;;;20.55;55.87;100686.66;3582842;40;20052;-62
2022/08/14 05:46:14;;;;;;;8.65;7.25;;;;;;;20.63;56.65;100675.75;3584164;40;20175;-62
2022/08/14 05:48:40;;;;;;;8.15;6.55;;;;;;;20.71;57.22;100669.47;3584053;40;20056;-62
2022/08/14 05:51:06;;;;;;;8.00;6.95;;;;;;;20.78;56.83;100670.50;3584319;40;20062;-62
2022/08/14 05:53:31;;;;;;;8.23;6.40;;;;;;;20.62;56.36;100633.06;3585225;40;20068;-62
2022/08/14 05:55:58;;;;;;;7.90;7.10;;;;;;;20.90;56.25;100671.06;3583109;40;20660;-62
2022/08/14 05:58:25;;;;;;;7.47;6.78;;;;;;;20.60;55.41;100607.78;3584459;40;20056;-62
2022/08/14 06:00:51;;;;;;;8.20;6.68;;;;;;;21.08;55.41;100671.78;3583968;40;20059;-62
2022/08/14 06:03:22;;;;;;;9.05;6.60;;;;;;;21.18;54.94;100679.00;3583497;40;20052;-62
2022/08/14 06:05:54;;;;;;;8.38;6.90;;;;;;;21.25;55.56;100675.44;3583722;40;20084;-62
2022/08/14 06:08:31;;;;;;;9.32;7.18;;;;;;;21.35;54.46;100672.56;3587739;40;20052;-63
2022/08/14 06:11:06;;;;;;;7.05;6.35;;;;;;;21.46;54.46;100674.13;3583925;40;20190;-62
2022/08/14 06:13:41;;;;;;;7.80;6.60;;;;;;;21.49;54.03;100666.41;3583614;40;20387;-63
2022/08/14 06:16:08;;;;;;;7.00;6.40;;;;;;;21.64;53.56;100676.69;3587999;40;20130;-62
2022/08/14 06:18:34;;;;;;;9.63;6.60;;;;;;;21.74;53.66;100663.69;3584097;40;20081;-62
2022/08/14 06:21:03;;;;;;;13.77;11.18;;;;;;;21.86;52.24;100665.06;3583728;40;20064;-62
2022/08/14 06:23:29;;;;;;;10.75;7.90;;;;;;;21.98;52.52;100669.16;3583854;40;20041;-62
2022/08/14 06:25:55;;;;;;;10.98;7.82;;;;;;;22.12;52.56;100666.75;3583564;40;20059;-63
2022/08/14 06:28:24;;;;;;;7.53;6.53;;;;;;;22.19;51.67;100651.34;3583714;40;20044;-62
2022/08/14 06:30:51;;;;;;;7.53;6.72;;;;;;;22.38;51.79;100664.66;3583171;40;20054;-62
2022/08/14 06:33:19;;;;;;;7.68;6.63;;;;;;;22.53;51.60;100655.72;3587788;40;20071;-62
2022/08/14 06:35:47;;;;;;;9.15;7.05;;;;;;;22.67;51.42;100655.78;3583899;39;20058;-62
2022/08/14 06:38:19;;;;;;;8.48;6.38;;;;;;;22.81;51.05;100659.69;3583524;40;20059;-62
2022/08/14 06:40:47;;;;;;;8.23;6.87;;;;;;;22.93;49.96;100658.28;3583341;40;20056;-62
2022/08/14 06:43:15;;;;;;;6.15;5.65;;;;;;;23.08;50.20;100657.50;3582795;40;20378;-63
2022/08/14 06:45:44;;;;;;;7.15;6.10;;;;;;;23.27;49.80;100654.31;3583838;40;20051;-62
2022/08/14 06:48:20;;;;;;;10.05;5.60;;;;;;;23.47;49.31;100646.47;3583800;40;20352;-62
2022/08/14 06:50:47;;;;;;;9.77;6.07;;;;;;;23.67;49.19;100643.22;3583692;40;20044;-63
2022/08/14 06:53:15;;;;;;;6.28;5.68;;;;;;;23.83;48.59;100651.31;3584987;40;20043;-63
2022/08/14 06:55:42;;;;;;;9.38;7.18;;;;;;;24.01;48.10;100651.00;3585031;39;20056;-63
2022/08/14 06:58:18;;;;;;;8.68;6.65;;;;;;;24.14;47.27;100634.72;3583143;40;20060;-62
2022/08/14 07:06:16;;;;;;;6.68;5.97;;;;;;;24.25;46.44;100540.84;3584291;40;20062;-63
2022/08/14 07:08:43;;;;;;;6.20;5.32;;;;;;;24.98;44.88;100639.88;3583085;40;20141;-63
2022/08/14 07:11:11;;;;;;;5.90;5.07;;;;;;;25.14;44.63;100647.91;3583350;40;20052;-63
2022/08/14 07:13:37;;;;;;;11.80;5.32;;;;;;;25.12;44.17;100617.03;3583508;40;20044;-63
2022/08/14 07:16:04;;;;;;;6.88;5.88;;;;;;;25.44;44.73;100645.06;3583548;40;20103;-63
2022/08/14 07:18:33;;;;;;;8.15;5.25;;;;;;;25.56;42.75;100640.72;3585087;40;20043;-63
2022/08/14 07:21:02;;;;;;;5.47;5.07;;;;;;;25.60;42.91;100633.78;3582588;40;20056;-63
2022/08/14 07:23:28;;;;;;;6.07;5.57;;;;;;;25.76;42.39;100643.66;3583597;40;20058;-63
2022/08/14 07:25:58;;;;;;;6.88;5.40;;;;;;;25.93;43.02;100641.50;3583240;40;20287;-63
2022/08/14 07:28:32;;;;;;;9.13;6.10;;;;;;;26.06;42.01;100647.09;3583506;40;20059;-63
2022/08/14 07:31:00;;;;;;;5.82;5.28;;;;;;;26.16;42.87;100650.38;3584804;40;20060;-63
2022/08/14 07:33:34;;;;;;;6.25;5.57;;;;;;;26.32;41.69;100640.06;3586193;40;20069;-63
2022/08/14 07:36:06;;;;;;;7.45;5.00;;;;;;;26.49;41.23;100635.97;3588322;39;20092;-62
2022/08/14 07:38:32;;;;;;;5.93;5.00;;;;;;;26.56;41.17;100636.84;3589164;39;20129;-63
2022/08/14 07:40:58;;;;;;;6.05;5.00;;;;;;;26.72;40.42;100632.03;3587129;40;20064;-64
2022/08/14 07:43:25;;;;;;;5.57;4.68;;;;;;;26.95;40.72;100635.31;3584822;40;20062;-63
2022/08/14 07:45:50;;;;;;;8.18;4.70;;;;;;;27.16;40.25;100636.28;3588809;40;20263;-63
2022/08/14 07:48:17;;;;;;;5.47;5.00;;;;;;;27.20;38.75;100637.53;3589008;40;20048;-64
2022/08/14 07:50:42;;;;;;;5.53;4.93;;;;;;;27.27;40.20;100630.13;3585033;40;20064;-64
2022/08/14 07:53:09;;;;;;;6.43;5.20;;;;;;;27.43;40.32;100632.47;3585511;40;20044;-63
2022/08/14 07:55:35;;;;;;;5.65;5.05;;;;;;;27.73;39.45;100629.34;3589333;40;20048;-63
2022/08/14 07:58:02;;;;;;;7.38;4.97;;;;;;;27.80;39.10;100608.09;3585921;40;20068;-64
2022/08/14 08:00:29;;;;;;;6.03;5.45;;;;;;;28.05;38.82;100633.16;3584654;40;20102;-63
2022/08/14 08:02:55;;;;;;;5.57;4.78;;;;;;;28.26;37.95;100640.38;3584689;40;20044;-63
2022/08/14 08:05:24;;;;;;;5.80;4.30;;;;;;;28.45;37.89;100636.75;3584851;40;20131;-63
2022/08/14 08:07:51;;;;;;;4.80;4.40;;;;;;;28.55;36.23;100635.44;3584716;40;20059;-63
2022/08/14 08:10:31;;;;;;;5.35;4.80;;;;;;;28.69;36.21;100642.59;3586728;40;20056;-64
2022/08/14 08:13:11;;;;;;;4.50;4.15;;;;;;;28.85;35.42;100639.34;3584803;40;20135;-63
2022/08/14 08:15:40;;;;;;;5.13;4.28;;;;;;;29.05;36.38;100641.19;3590715;40;20047;-63
2022/08/14 08:18:10;;;;;;;7.97;4.32;;;;;;;29.21;36.19;100628.75;3590903;39;20057;-63
2022/08/14 08:20:43;;;;;;;5.30;4.82;;;;;;;29.44;35.64;100628.19;3584705;40;20044;-63
2022/08/14 08:23:08;;;;;;;;;;;;;;;29.33;35.09;100589.06;3585486;40;20290;-63
2022/08/14 08:25:39;;;;;;;5.85;4.47;;;;;;;29.69;35.07;100615.25;3585666;40;20347;-63
2022/08/14 08:28:14;;;;;;;9.02;4.45;;;;;;;29.76;35.09;100612.41;3588819;40;20059;-63
2022/08/14 08:30:46;;;;;;;5.43;4.53;;;;;;;29.79;33.89;100600.88;3585622;40;20051;-62
2022/08/14 08:33:15;;;;;;;4.97;4.55;;;;;;;29.92;33.92;100608.22;3588146;40;20087;-63
2022/08/14 08:35:42;;;;;;;5.45;4.45;;;;;;;30.15;34.46;100608.41;3585300;39;20044;-63
2022/08/14 08:38:16;;;;;;;4.70;4.30;;;;;;;30.33;32.13;100615.94;3584926;40;20055;-63
2022/08/14 08:40:48;;;;;;;4.82;4.28;;;;;;;30.48;32.46;100621.06;3585834;40;20052;-63
2022/08/14 08:43:26;;;;;;;6.70;4.10;;;;;;;30.73;34.07;100621.88;3584407;40;20059;-63
2022/08/14 08:46:18;;;;;;;4.88;4.28;;;;;;;30.89;31.81;100619.53;3583758;39;20060;-63
2022/08/14 08:48:58;;;;;;;6.32;4.57;;;;;;;31.11;31.79;100606.84;3585158;40;20077;-63
2022/08/14 08:51:31;;;;;;;5.00;3.85;;;;;;;31.27;31.47;100613.66;3585972;39;20048;-63
2022/08/14 08:54:02;;;;;;;4.95;4.40;;;;;;;31.50;31.68;100615.69;3585128;39;20066;-63
2022/08/14 08:56:44;;;;;;;4.95;4.45;;;;;;;31.64;31.47;100607.97;3585762;39;20067;-63
2022/08/14 08:59:25;;;;;;;4.57;4.25;;;;;;;31.79;30.22;100613.09;3589093;40;20041;-64
2022/08/14 09:02:09;;;;;;;6.35;4.30;;;;;;;32.03;31.51;100609.22;3584233;40;20076;-64
2022/08/14 09:04:43;;;;;;;4.75;4.35;;;;;;;32.03;30.54;100608.38;3587116;39;20092;-64
2022/08/14 09:07:10;;;;;;;5.95;4.20;;;;;;;31.89;30.12;100585.56;3586341;40;20054;-63
2022/08/14 09:09:50;;;;;;;4.38;3.97;;;;;;;32.23;30.49;100608.03;3584010;40;20098;-64
2022/08/14 09:12:17;;;;;;;4.10;3.80;;;;;;;32.33;31.25;100599.91;3585580;40;20056;-64
2022/08/14 09:14:47;;;;;;;4.65;4.25;;;;;;;32.21;28.55;100587.97;3585431;39;20374;-64
2022/08/14 09:17:13;;;;;;;9.25;4.38;;;;;;;32.37;29.50;100592.75;3588073;40;20048;-64
2022/08/14 09:19:40;;;;;;;4.40;4.00;;;;;;;31.72;29.31;100449.22;3585019;40;20064;-64
2022/08/14 09:22:06;;;;;;;4.85;3.97;;;;;;;32.64;29.35;100575.53;3582136;40;20075;-64
2022/08/14 09:24:32;;;;;;;4.38;3.97;;;;;;;32.79;29.21;100579.47;3584276;40;20060;-67
2022/08/14 09:26:58;;;;;;;7.53;4.13;;;;;;;32.87;28.33;100589.38;3584431;40;20106;-64
2022/08/14 09:29:24;;;;;;;4.30;3.45;;;;;;;32.89;28.61;100590.00;3584249;40;20047;-64
2022/08/14 09:31:58;;;;;;;6.07;3.80;;;;;;;32.97;27.26;100586.00;3582681;40;20506;-64
2022/08/14 09:35:01;;;;;;;4.10;3.67;;;;;;;33.14;28.37;100588.81;3585890;40;20052;-63
2022/08/14 09:37:59;;;;;;;3.88;3.58;;;;;;;33.33;29.07;100579.13;3583332;40;20383;-64
2022/08/14 09:41:03;;;;;;;4.40;3.97;;;;;;;33.44;27.65;100581.00;3584037;40;20048;-64
2022/08/14 09:43:37;;;;;;;4.25;3.70;;;;;;;33.60;28.08;100578.50;3584822;40;20079;-64
2022/08/14 09:46:06;;;;;;;4.15;3.75;;;;;;;33.66;27.25;100566.34;3584864;40;20051;-64
2022/08/14 09:48:32;;;;;;;4.07;3.78;;;;;;;33.75;27.89;100570.41;3583369;40;20078;-64
2022/08/14 09:50:59;;;;;;;5.22;3.80;;;;;;;33.79;27.51;100560.41;3582553;40;20410;-64
2022/08/14 09:53:41;;;;;;;5.55;3.55;;;;;;;33.95;27.60;100565.13;3584793;40;20056;-64
2022/08/14 09:56:07;;;;;;;5.57;3.70;;;;;;;34.20;27.42;100558.25;3583900;40;20048;-64
2022/08/14 09:58:42;;;;;;;5.70;3.70;;;;;;;34.48;26.61;100550.81;3583569;40;20090;-63
2022/08/14 10:01:11;;;;;;;4.65;3.55;;;;;;;34.68;26.57;100545.47;3585518;40;20054;-64
2022/08/14 10:03:54;;;;;;;4.22;3.78;;;;;;;34.48;26.61;100551.66;3587682;40;20055;-64
2022/08/14 10:06:26;;;;;;;;;;;;;;;34.63;27.61;100542.63;3582647;40;20063;-63
2022/08/14 10:09:08;;;;;;;4.80;3.95;;;;;;;34.71;27.18;100511.44;3586268;40;19956;-63
2022/08/14 10:11:37;;;;;;;5.07;4.03;;;;;;;34.97;27.23;100536.84;3582531;40;20058;-64
2022/08/14 10:14:20;;;;;;;4.82;3.58;;;;;;;34.98;26.44;100524.56;3583007;40;20051;-64
2022/08/14 10:16:53;;;;;;;4.20;3.90;;;;;;;35.08;27.34;100539.53;3584478;40;20051;-63
2022/08/14 10:19:27;;;;;;;3.97;3.67;;;;;;;35.29;25.82;100534.94;3589188;40;20059;-64
2022/08/14 10:22:09;;;;;;;4.40;3.88;;;;;;;35.14;26.05;100522.78;3582391;39;20060;-63
2022/08/14 10:24:45;;;;;;;3.90;3.60;;;;;;;35.09;25.27;100529.19;3587981;39;20378;-63
2022/08/14 10:27:24;;;;;;;4.72;3.97;;;;;;;35.23;25.88;100530.41;3585111;40;20056;-63
2022/08/14 10:29:54;;;;;;;3.67;3.38;;;;;;;35.38;25.11;100526.91;3583047;40;20134;-63
2022/08/14 10:32:21;;;;;;;3.90;3.60;;;;;;;35.50;25.78;100515.56;3582671;40;20141;-63
2022/08/14 10:34:49;;;;;;;4.75;4.32;;;;;;;35.60;25.21;100517.63;3584311;39;20106;-64
2022/08/14 10:37:17;;;;;;;3.70;3.40;;;;;;;35.46;25.03;100506.88;3583056;40;20110;-63
2022/08/14 10:39:57;;;;;;;4.57;3.63;;;;;;;35.58;25.00;100509.47;3584516;40;20333;-64
2022/08/14 10:42:39;;;;;;;5.75;3.97;;;;;;;35.56;25.60;100500.53;3587077;40;20051;-64
2022/08/14 10:45:32;;;;;;;4.22;3.72;;;;;;;35.56;26.17;100497.75;3586196;40;20044;-63
2022/08/14 10:47:58;;;;;;;4.65;4.10;;;;;;;35.46;25.74;100501.28;3582731;40;20060;-64
2022/08/14 10:50:40;;;;;;;4.75;3.72;;;;;;;35.77;24.82;100502.34;3584552;39;20051;-63
2022/08/14 10:53:06;;;;;;;4.43;4.03;;;;;;;35.90;25.06;100497.38;3584135;40;20059;-64
2022/08/14 10:55:38;;;;;;;4.10;3.80;;;;;;;35.95;25.07;100500.22;3585825;40;20072;-63
2022/08/14 10:58:10;;;;;;;5.35;4.13;;;;;;;36.05;25.16;100493.84;3587732;40;20067;-64
2022/08/14 11:00:39;;;;;;;4.07;3.73;;;;;;;36.15;26.18;100480.75;3586445;40;20044;-64
2022/08/14 11:03:16;;;;;;;5.18;3.83;;;;;;;36.42;24.30;100488.13;3585119;40;20099;-64
2022/08/14 11:05:50;;;;;;;4.28;3.55;;;;;;;36.38;23.34;100500.97;3585107;40;20048;-63
2022/08/14 11:08:30;;;;;;;5.00;3.38;;;;;;;36.35;23.15;100490.31;3583752;40;20093;-63
2022/08/14 11:11:00;;;;;;;4.40;3.38;;;;;;;36.41;23.91;100500.44;3586812;40;20109;-65
2022/08/14 11:13:29;;;;;;;3.70;3.28;;;;;;;36.36;24.02;100490.06;3585761;40;20071;-63
2022/08/14 11:16:01;;;;;;;3.70;3.40;;;;;;;36.30;24.09;100487.53;3586212;40;20071;-63
2022/08/14 11:18:29;;;;;;;3.57;3.27;;;;;;;36.25;22.68;100489.19;3585892;40;20049;-63
2022/08/14 11:20:59;;;;;;;3.50;3.20;;;;;;;36.30;23.55;100487.53;3582114;40;20295;-64
2022/08/14 11:23:30;;;;;;;4.65;3.33;;;;;;;36.46;22.33;100484.50;3582359;40;20369;-63
2022/08/14 11:25:59;;;;;;;3.35;3.15;;;;;;;36.63;22.59;100481.50;3587082;40;20052;-65
2022/08/14 11:28:32;;;;;;;3.75;3.17;;;;;;;36.58;22.79;100483.44;3589735;39;20063;-64
2022/08/14 11:31:02;;;;;;;3.80;3.33;;;;;;;36.68;22.28;100487.09;3582028;39;20400;-64
2022/08/14 11:33:34;;;;;;;4.05;3.38;;;;;;;36.60;23.34;100482.06;3585135;39;20056;-64
2022/08/14 11:36:04;;;;;;;3.67;3.38;;;;;;;36.41;23.46;100483.63;3582425;40;20052;-63
2022/08/14 11:38:42;;;;;;;3.40;3.10;;;;;;;36.46;22.32;100476.09;3581864;40;20383;-63
2022/08/14 11:41:10;;;;;;;3.70;3.40;;;;;;;36.76;22.86;100473.66;3585316;40;20238;-64
2022/08/14 11:43:49;;;;;;;3.10;2.80;;;;;;;36.79;21.30;100461.91;3584890;39;20130;-63
2022/08/14 11:46:15;;;;;;;5.28;2.92;;;;;;;36.99;20.78;100458.31;3587826;39;20048;-63
2022/08/14 11:48:52;;;;;;;2.78;2.55;;;;;;;37.05;21.49;100452.44;3584133;40;20083;-63
2022/08/14 11:51:25;;;;;;;3.20;2.90;;;;;;;37.06;21.01;100456.91;3581989;40;20052;-63
2022/08/14 11:54:05;;;;;;;3.80;3.20;;;;;;;37.13;22.94;100445.41;3582345;40;20056;-64
2022/08/14 11:56:36;;;;;;;5.40;3.50;;;;;;;37.28;22.38;100441.78;3588455;40;20376;-64